Time;durP1;ratioP1;P1;durP2;ratioP2;P2;SDS_P1;SDS_P2;PMS_P1;PMS_P2;Temp;Humidity;BMP_temperature;BMP_pressure;BME280_temperature;BME280_humidity;BME280_pressure;Samples;Min_cycle;Max_cycle;Signal;HPM_P1;HPM_P2
2024/03/20 00:01:25;;;;;;;34.90;15.37;;;;;;;;;;4930364;28;20266;-89
2024/03/20 00:04:31;;;;;;;33.83;15.60;;;;;;;;;;4930251;28;20196;-89
2024/03/20 00:07:40;;;;;;;31.83;16.37;;;;;;;;;;4929795;28;20240;-89
2024/03/20 00:10:47;;;;;;;31.40;15.10;;;;;;;;;;4928832;28;20215;-89
2024/03/20 00:13:52;;;;;;;36.73;16.23;;;;;;;;;;4929570;28;20348;-89
2024/03/20 00:16:58;;;;;;;34.27;15.80;;;;;;;;;;4929681;28;20572;-89
2024/03/20 00:20:03;;;;;;;32.37;16.30;;;;;;;;;;4928757;28;20230;-89
2024/03/20 00:23:09;;;;;;;35.90;15.87;;;;;;;;;;4928339;28;20184;-90
2024/03/20 00:26:15;;;;;;;37.00;15.60;;;;;;;;;;4929470;28;20215;-90
2024/03/20 00:29:20;;;;;;;35.20;15.47;;;;;;;;;;4938122;29;20203;-91
2024/03/20 00:32:25;;;;;;;32.77;16.67;;;;;;;;;;4948856;28;20194;-91
2024/03/20 00:35:33;;;;;;;32.80;16.37;;;;;;;;;;4947529;28;20219;-92
2024/03/20 00:38:38;;;;;;;33.73;15.23;;;;;;;;;;4948193;28;20195;-89
2024/03/20 00:41:46;;;;;;;32.87;15.37;;;;;;;;;;4947637;28;20191;-90
2024/03/20 00:44:51;;;;;;;29.63;14.77;;;;;;;;;;4948890;28;20191;-91
2024/03/20 00:47:56;;;;;;;32.07;14.93;;;;;;;;;;4946844;28;20201;-89
2024/03/20 00:51:01;;;;;;;40.10;15.60;;;;;;;;;;4948603;28;20658;-89
2024/03/20 00:54:06;;;;;;;32.03;15.53;;;;;;;;;;4949278;28;20227;-89
2024/03/20 00:57:17;;;;;;;33.13;16.53;;;;;;;;;;4947278;28;20195;-89
2024/03/20 01:00:22;;;;;;;31.17;15.03;;;;;;;;;;4947715;29;20638;-89
2024/03/20 01:03:26;;;;;;;33.43;15.57;;;;;;;;;;4945859;29;20242;-89
2024/03/20 01:06:32;;;;;;;32.83;16.20;;;;;;;;;;4945591;29;20193;-89
2024/03/20 01:09:37;;;;;;;40.70;17.10;;;;;;;;;;4945931;28;20191;-88
2024/03/20 01:12:43;;;;;;;32.20;15.50;;;;;;;;;;4947053;28;20671;-91
2024/03/20 01:15:48;;;;;;;31.10;16.07;;;;;;;;;;4948751;28;20199;-89
2024/03/20 01:18:53;;;;;;;31.23;15.10;;;;;;;;;;4931371;28;20196;-89
2024/03/20 01:21:59;;;;;;;32.90;15.10;;;;;;;;;;4927689;28;20199;-89
2024/03/20 01:25:04;;;;;;;32.13;15.43;;;;;;;;;;4927843;28;20257;-89
2024/03/20 01:28:10;;;;;;;32.97;15.60;;;;;;;;;;4928371;28;20192;-88
2024/03/20 01:31:15;;;;;;;32.53;15.83;;;;;;;;;;4929219;29;20191;-89
2024/03/20 01:34:20;;;;;;;34.43;15.70;;;;;;;;;;4928110;28;20219;-90
2024/03/20 01:37:25;;;;;;;31.83;15.33;;;;;;;;;;4927607;28;20290;-89
2024/03/20 01:40:35;;;;;;;39.40;17.83;;;;;;;;;;4928353;28;20195;-88
2024/03/20 01:43:41;;;;;;;36.13;16.47;;;;;;;;;;4928614;28;20184;-89
2024/03/20 01:46:47;;;;;;;34.00;16.67;;;;;;;;;;4927858;28;20211;-89
2024/03/20 01:49:52;;;;;;;40.67;16.90;;;;;;;;;;4928052;29;20188;-89
2024/03/20 01:52:57;;;;;;;32.87;16.87;;;;;;;;;;4927413;29;20187;-90
2024/03/20 01:56:03;;;;;;;36.20;17.53;;;;;;;;;;4928907;28;20176;-87
2024/03/20 01:59:10;;;;;;;37.80;16.77;;;;;;;;;;4943610;28;20219;-89
2024/03/20 02:02:15;;;;;;;36.47;16.30;;;;;;;;;;4946604;28;20203;-90
2024/03/20 02:05:20;;;;;;;37.73;17.37;;;;;;;;;;4947396;28;20247;-88
2024/03/20 02:08:26;;;;;;;42.43;17.33;;;;;;;;;;4947862;28;20232;-89
2024/03/20 02:11:31;;;;;;;38.03;16.90;;;;;;;;;;4947732;29;20243;-91
2024/03/20 02:14:40;;;;;;;42.57;16.53;;;;;;;;;;4947129;28;20347;-89
2024/03/20 02:17:45;;;;;;;39.97;17.60;;;;;;;;;;4945983;28;20192;-89
2024/03/20 02:20:50;;;;;;;41.23;18.00;;;;;;;;;;4947834;28;20690;-89
2024/03/20 02:23:56;;;;;;;38.83;18.07;;;;;;;;;;4946461;28;20301;-90
2024/03/20 02:27:01;;;;;;;41.67;19.40;;;;;;;;;;4925622;28;20216;-88
2024/03/20 02:30:08;;;;;;;43.87;18.53;;;;;;;;;;4938266;28;20183;-89
2024/03/20 02:33:13;;;;;;;40.67;17.57;;;;;;;;;;4956559;28;20187;-91
2024/03/20 02:36:18;;;;;;;41.47;18.30;;;;;;;;;;4946403;28;20191;-89
2024/03/20 02:39:25;;;;;;;44.83;19.13;;;;;;;;;;4945783;28;20191;-89
2024/03/20 02:42:30;;;;;;;49.50;19.50;;;;;;;;;;4945273;28;20187;-89
2024/03/20 02:45:35;;;;;;;46.90;18.03;;;;;;;;;;4945910;29;20195;-90
2024/03/20 02:48:40;;;;;;;38.90;18.17;;;;;;;;;;4945726;28;20254;-89
2024/03/20 02:51:45;;;;;;;38.87;18.57;;;;;;;;;;4927205;28;20192;-90
2024/03/20 02:54:52;;;;;;;43.10;18.17;;;;;;;;;;4937764;28;20220;-90
2024/03/20 02:57:57;;;;;;;44.13;19.53;;;;;;;;;;4936776;28;20281;-90
2024/03/20 03:01:03;;;;;;;54.47;18.60;;;;;;;;;;4951105;28;20281;-90
2024/03/20 03:04:08;;;;;;;41.57;18.37;;;;;;;;;;4944513;28;20191;-89
2024/03/20 03:07:13;;;;;;;49.33;19.03;;;;;;;;;;4956670;28;20207;-89
2024/03/20 03:10:20;;;;;;;43.80;19.13;;;;;;;;;;4956706;28;20706;-88
2024/03/20 03:13:26;;;;;;;152.83;21.03;;;;;;;;;;4945041;28;20226;-89
2024/03/20 03:16:34;;;;;;;59.43;18.47;;;;;;;;;;4943080;28;20219;-90
2024/03/20 03:19:39;;;;;;;50.20;19.67;;;;;;;;;;4943692;28;20258;-90
2024/03/20 03:22:44;;;;;;;45.83;18.20;;;;;;;;;;4955783;28;20203;-89
2024/03/20 03:25:51;;;;;;;50.50;18.63;;;;;;;;;;4945014;28;20227;-89
2024/03/20 03:28:56;;;;;;;41.93;18.53;;;;;;;;;;4944863;28;20710;-89
2024/03/20 03:32:01;;;;;;;55.20;18.27;;;;;;;;;;4955225;28;20180;-87
2024/03/20 03:35:07;;;;;;;44.50;19.10;;;;;;;;;;4945866;28;20258;-88
2024/03/20 03:38:12;;;;;;;80.57;18.77;;;;;;;;;;4945677;28;20224;-89
2024/03/20 03:41:18;;;;;;;60.07;18.67;;;;;;;;;;4945728;28;20362;-88
2024/03/20 03:44:23;;;;;;;61.43;19.57;;;;;;;;;;4943511;28;20191;-90
2024/03/20 03:47:30;;;;;;;51.30;18.87;;;;;;;;;;4943081;29;20171;-90
2024/03/20 03:50:36;;;;;;;61.67;19.47;;;;;;;;;;4933697;28;20200;-89
2024/03/20 03:53:41;;;;;;;47.10;19.93;;;;;;;;;;4925166;28;20196;-90
2024/03/20 03:56:47;;;;;;;45.63;20.17;;;;;;;;;;4937192;28;20235;-90
2024/03/20 03:59:52;;;;;;;54.87;20.60;;;;;;;;;;4936662;28;20232;-90
2024/03/20 04:02:58;;;;;;;44.70;20.53;;;;;;;;;;4925234;28;20196;-89
2024/03/20 04:06:08;;;;;;;50.70;20.77;;;;;;;;;;4928350;28;20216;-90
2024/03/20 04:09:13;;;;;;;52.03;20.87;;;;;;;;;;4929917;28;20180;-90
2024/03/20 04:12:20;;;;;;;60.40;20.77;;;;;;;;;;4929001;28;20239;-91
2024/03/20 04:15:25;;;;;;;49.40;20.43;;;;;;;;;;4929205;29;20207;-90
2024/03/20 04:18:30;;;;;;;48.37;20.53;;;;;;;;;;4929316;29;20271;-89
2024/03/20 04:21:35;;;;;;;50.60;21.77;;;;;;;;;;4928589;29;20674;-89
2024/03/20 04:24:40;;;;;;;59.60;21.93;;;;;;;;;;4946534;28;20327;-89
2024/03/20 04:27:46;;;;;;;56.40;21.23;;;;;;;;;;4946912;28;20320;-90
2024/03/20 04:30:52;;;;;;;51.10;20.37;;;;;;;;;;4948058;28;20195;-91
2024/03/20 04:33:57;;;;;;;45.37;19.17;;;;;;;;;;4947554;28;20707;-90
2024/03/20 04:37:02;;;;;;;53.00;21.37;;;;;;;;;;4945079;28;20212;-91
2024/03/20 04:40:08;;;;;;;42.80;19.90;;;;;;;;;;4942321;28;20199;-90
2024/03/20 04:43:15;;;;;;;46.07;20.73;;;;;;;;;;4926575;28;20796;-92
2024/03/20 04:46:20;;;;;;;52.17;22.17;;;;;;;;;;4927990;28;20204;-90
2024/03/20 04:49:25;;;;;;;50.77;22.67;;;;;;;;;;4928371;28;20273;-88
2024/03/20 04:52:31;;;;;;;56.53;21.43;;;;;;;;;;4926723;29;20773;-89
2024/03/20 04:55:36;;;;;;;57.70;22.13;;;;;;;;;;4927715;28;20290;-89
2024/03/20 04:58:43;;;;;;;51.87;22.37;;;;;;;;;;4927778;28;20192;-90
2024/03/20 05:01:47;;;;;;;51.90;21.77;;;;;;;;;;4946379;28;20199;-89
2024/03/20 05:04:55;;;;;;;55.30;22.73;;;;;;;;;;4945719;28;20203;-90
2024/03/20 05:07:59;;;;;;;53.47;22.77;;;;;;;;;;4927206;29;20243;-90
2024/03/20 05:11:05;;;;;;;52.50;22.57;;;;;;;;;;4927375;29;20188;-89
2024/03/20 05:14:15;;;;;;;53.10;21.50;;;;;;;;;;4927594;28;20254;-91
2024/03/20 05:17:21;;;;;;;56.27;24.30;;;;;;;;;;4941449;28;20203;-88
2024/03/20 05:20:26;;;;;;;60.40;23.77;;;;;;;;;;4946829;28;20195;-90
2024/03/20 05:23:30;;;;;;;54.53;23.03;;;;;;;;;;4945152;28;20620;-90
2024/03/20 05:26:35;;;;;;;55.80;23.77;;;;;;;;;;4938121;28;20259;-92
2024/03/20 05:29:41;;;;;;;51.23;22.37;;;;;;;;;;4928771;29;20275;-90
2024/03/20 05:32:54;;;;;;;73.53;23.47;;;;;;;;;;4927656;28;20200;-89
2024/03/20 05:35:58;;;;;;;50.80;20.70;;;;;;;;;;4926128;28;20597;-90
2024/03/20 05:39:08;;;;;;;61.80;23.13;;;;;;;;;;4926035;28;20204;-89
2024/03/20 05:42:14;;;;;;;51.10;22.23;;;;;;;;;;4944827;28;20216;-89
2024/03/20 05:45:19;;;;;;;55.70;22.67;;;;;;;;;;4945301;28;20223;-90
2024/03/20 05:48:24;;;;;;;50.63;22.67;;;;;;;;;;4948013;28;20218;-89
2024/03/20 05:51:30;;;;;;;58.70;22.57;;;;;;;;;;4946768;28;20202;-89
2024/03/20 05:54:34;;;;;;;55.83;21.93;;;;;;;;;;4941759;28;20294;-89
2024/03/20 05:57:40;;;;;;;51.27;21.47;;;;;;;;;;4934962;28;20199;-89
2024/03/20 06:00:49;;;;;;;51.43;21.97;;;;;;;;;;4940956;28;20206;-88
2024/03/20 06:03:54;;;;;;;48.90;21.77;;;;;;;;;;4957293;28;20207;-90
2024/03/20 06:07:00;;;;;;;50.57;21.17;;;;;;;;;;4937489;28;20215;-90
2024/03/20 06:10:08;;;;;;;50.33;22.10;;;;;;;;;;4939888;28;20869;-89
2024/03/20 06:13:13;;;;;;;52.27;22.60;;;;;;;;;;4924975;28;20194;-90
2024/03/20 06:16:18;;;;;;;51.10;23.07;;;;;;;;;;4927127;28;20235;-89
2024/03/20 06:19:24;;;;;;;50.20;20.70;;;;;;;;;;4927788;28;20709;-88
2024/03/20 06:22:28;;;;;;;48.20;22.23;;;;;;;;;;4939397;28;20274;-87
2024/03/20 06:25:33;;;;;;;55.43;22.27;;;;;;;;;;4937245;28;20216;-88
2024/03/20 06:28:38;;;;;;;54.50;23.20;;;;;;;;;;4937666;28;20203;-90
2024/03/20 06:31:44;;;;;;;52.97;21.40;;;;;;;;;;4938327;28;20663;-88
2024/03/20 06:34:50;;;;;;;49.53;21.60;;;;;;;;;;4940228;28;20191;-90
2024/03/20 06:37:54;;;;;;;49.83;21.73;;;;;;;;;;4942427;28;20779;-87
2024/03/20 06:40:59;;;;;;;47.43;21.57;;;;;;;;;;4948284;28;20224;-88
2024/03/20 06:44:07;;;;;;;50.83;22.67;;;;;;;;;;4943182;29;20203;-89
2024/03/20 06:47:13;;;;;;;54.67;23.80;;;;;;;;;;4943511;29;20259;-90
2024/03/20 06:50:18;;;;;;;49.60;21.90;;;;;;;;;;4944644;29;20199;-91
2024/03/20 06:53:23;;;;;;;55.37;23.10;;;;;;;;;;4945654;29;20310;-88
2024/03/20 06:56:28;;;;;;;50.47;23.20;;;;;;;;;;4945372;28;20242;-91
2024/03/20 06:59:33;;;;;;;52.60;23.60;;;;;;;;;;4944941;29;20283;-89
2024/03/20 07:02:41;;;;;;;47.23;22.40;;;;;;;;;;4945014;28;20188;-88
2024/03/20 07:05:45;;;;;;;49.67;23.87;;;;;;;;;;4948032;28;20328;-90
2024/03/20 07:08:50;;;;;;;53.43;23.87;;;;;;;;;;4945012;28;20649;-90
2024/03/20 07:11:54;;;;;;;48.00;21.80;;;;;;;;;;4946006;28;20284;-89
2024/03/20 07:14:59;;;;;;;57.08;24.00;;;;;;;;;;4943894;28;20246;-89
2024/03/20 07:18:05;;;;;;;51.33;22.83;;;;;;;;;;4944834;28;20654;-90
2024/03/20 07:21:10;;;;;;;49.17;22.85;;;;;;;;;;4945649;28;20260;-89
2024/03/20 07:24:16;;;;;;;47.17;23.10;;;;;;;;;;4945254;28;20179;-89
2024/03/20 07:27:20;;;;;;;54.20;24.20;;;;;;;;;;4945205;29;20223;-90
2024/03/20 07:30:25;;;;;;;54.92;23.55;;;;;;;;;;4944183;28;20221;-90
2024/03/20 07:33:31;;;;;;;54.45;23.70;;;;;;;;;;4945588;28;20188;-89
2024/03/20 07:36:36;;;;;;;48.42;21.63;;;;;;;;;;4941475;29;20223;-88
2024/03/20 07:39:41;;;;;;;54.72;22.95;;;;;;;;;;4944429;28;20179;-90
2024/03/20 07:42:46;;;;;;;52.80;23.15;;;;;;;;;;4947884;28;20223;-90
2024/03/20 07:45:51;;;;;;;51.60;22.75;;;;;;;;;;4947086;28;20693;-87
2024/03/20 07:48:58;;;;;;;46.63;21.67;;;;;;;;;;4947014;28;20268;-88
2024/03/20 07:52:03;;;;;;;51.67;24.10;;;;;;;;;;4945382;29;20210;-88
2024/03/20 07:55:08;;;;;;;49.28;22.23;;;;;;;;;;4946881;29;20195;-89
2024/03/20 07:58:14;;;;;;;53.00;24.67;;;;;;;;;;4947363;28;20227;-90
2024/03/20 08:01:20;;;;;;;50.83;22.13;;;;;;;;;;4948427;28;20199;-90
2024/03/20 08:04:27;;;;;;;49.70;22.80;;;;;;;;;;4950880;28;20283;-91
2024/03/20 08:07:32;;;;;;;44.03;21.27;;;;;;;;;;4947596;28;20219;-89
2024/03/20 08:10:37;;;;;;;49.78;22.10;;;;;;;;;;4947164;28;20223;-89
2024/03/20 08:13:42;;;;;;;50.30;22.02;;;;;;;;;;4947647;29;20190;-92
2024/03/20 08:16:49;;;;;;;38.90;19.50;;;;;;;;;;4946920;28;20211;-89
2024/03/20 08:19:56;;;;;;;40.70;18.95;;;;;;;;;;4950138;28;20239;-90
2024/03/20 08:23:01;;;;;;;40.60;18.40;;;;;;;;;;4946973;28;20260;-89
2024/03/20 08:26:07;;;;;;;41.42;17.85;;;;;;;;;;4948142;28;20286;-88
2024/03/20 08:29:11;;;;;;;43.33;19.48;;;;;;;;;;4954181;28;20175;-88
2024/03/20 08:32:25;;;;;;;43.20;19.52;;;;;;;;;;4949681;28;20238;-89
2024/03/20 08:35:31;;;;;;;41.58;18.60;;;;;;;;;;4948673;29;20234;-89
2024/03/20 08:38:36;;;;;;;38.55;18.20;;;;;;;;;;4947335;28;20247;-89
2024/03/20 08:41:42;;;;;;;39.63;17.48;;;;;;;;;;4946096;29;20261;-90
2024/03/20 08:44:46;;;;;;;34.30;16.77;;;;;;;;;;4946518;28;20236;-89
2024/03/20 08:47:52;;;;;;;35.42;17.17;;;;;;;;;;4947323;28;20320;-89
2024/03/20 08:50:57;;;;;;;32.75;15.95;;;;;;;;;;4946650;28;20339;-88
2024/03/20 08:54:02;;;;;;;51.28;26.65;;;;;;;;;;4947735;29;20191;-88
2024/03/20 08:57:07;;;;;;;34.20;17.02;;;;;;;;;;4947358;28;20234;-89
2024/03/20 09:00:13;;;;;;;36.97;17.40;;;;;;;;;;4949190;28;20199;-89
2024/03/20 09:03:17;;;;;;;31.52;16.75;;;;;;;;;;4948221;28;20585;-90
2024/03/20 09:06:24;;;;;;;32.67;16.92;;;;;;;;;;4946119;28;20171;-89
2024/03/20 09:09:33;;;;;;;32.83;15.98;;;;;;;;;;4946799;29;20199;-91
2024/03/20 09:12:38;;;;;;;30.73;15.98;;;;;;;;;;4947050;29;20242;-90
2024/03/20 09:15:42;;;;;;;33.15;16.45;;;;;;;;;;4946379;29;20231;-89
2024/03/20 09:18:47;;;;;;;33.75;16.45;;;;;;;;;;4945233;29;20701;-90
2024/03/20 09:21:53;;;;;;;27.08;15.75;;;;;;;;;;4947487;28;20208;-90
2024/03/20 09:24:59;;;;;;;31.73;15.88;;;;;;;;;;4948652;28;20199;-90
2024/03/20 09:28:04;;;;;;;25.67;15.25;;;;;;;;;;4949659;28;20186;-90
2024/03/20 09:31:08;;;;;;;22.55;14.60;;;;;;;;;;4946550;28;20236;-90
2024/03/20 09:34:14;;;;;;;31.75;15.30;;;;;;;;;;4946004;28;20248;-90
2024/03/20 09:37:20;;;;;;;23.80;14.27;;;;;;;;;;4947209;28;20222;-91
2024/03/20 09:40:26;;;;;;;21.08;13.95;;;;;;;;;;4946862;28;20199;-89
2024/03/20 09:43:30;;;;;;;24.00;15.20;;;;;;;;;;4947077;28;20195;-91
2024/03/20 09:46:36;;;;;;;19.88;13.50;;;;;;;;;;4947844;28;20644;-91
2024/03/20 09:49:44;;;;;;;27.15;15.68;;;;;;;;;;4947654;28;20234;-90
2024/03/20 09:52:51;;;;;;;24.08;15.98;;;;;;;;;;4947971;28;20210;-89
2024/03/20 09:55:55;;;;;;;24.20;15.60;;;;;;;;;;4945343;28;20667;-90
2024/03/20 09:59:00;;;;;;;23.52;15.25;;;;;;;;;;4946385;28;20186;-91
2024/03/20 10:02:04;;;;;;;22.42;14.52;;;;;;;;;;4945461;28;20663;-92
2024/03/20 10:05:12;;;;;;;28.33;13.63;;;;;;;;;;4946430;28;20174;-91
2024/03/20 10:08:19;;;;;;;21.10;13.50;;;;;;;;;;4943459;28;20191;-92
2024/03/20 10:11:23;;;;;;;21.58;13.80;;;;;;;;;;4943387;29;20218;-91
2024/03/20 10:14:28;;;;;;;23.00;13.80;;;;;;;;;;4944662;29;20187;-91
2024/03/20 10:17:34;;;;;;;20.27;14.18;;;;;;;;;;4941686;29;20247;-91
2024/03/20 10:20:39;;;;;;;20.25;13.32;;;;;;;;;;4943294;28;20198;-91
2024/03/20 10:23:46;;;;;;;19.73;12.40;;;;;;;;;;4943635;28;20255;-90
2024/03/20 10:26:52;;;;;;;21.98;12.98;;;;;;;;;;4943587;28;20226;-91
2024/03/20 10:29:56;;;;;;;20.50;12.85;;;;;;;;;;4943522;28;20187;-90
2024/03/20 10:33:03;;;;;;;24.58;13.32;;;;;;;;;;4943416;28;20235;-90
2024/03/20 10:36:09;;;;;;;21.65;12.38;;;;;;;;;;4946979;29;20256;-90
2024/03/20 10:39:17;;;;;;;17.30;11.30;;;;;;;;;;4945708;28;20195;-91
2024/03/20 10:42:21;;;;;;;18.95;11.93;;;;;;;;;;4946941;28;20729;-92
2024/03/20 10:45:26;;;;;;;16.67;10.85;;;;;;;;;;4946717;28;20186;-90
2024/03/20 10:48:31;;;;;;;17.70;11.30;;;;;;;;;;4944579;28;20198;-90
2024/03/20 10:51:36;;;;;;;16.23;10.85;;;;;;;;;;4944562;28;20243;-91
2024/03/20 10:54:44;;;;;;;17.35;11.20;;;;;;;;;;4944615;28;20287;-91
2024/03/20 10:57:49;;;;;;;16.98;10.60;;;;;;;;;;4943927;28;20326;-92
2024/03/20 11:00:54;;;;;;;16.35;10.80;;;;;;;;;;4943038;29;20222;-91
2024/03/20 11:03:59;;;;;;;24.00;11.48;;;;;;;;;;4943843;28;20187;-91
2024/03/20 11:07:19;;;;;;;21.65;11.50;;;;;;;;;;4943863;28;20266;-92
2024/03/20 11:10:26;;;;;;;16.40;9.82;;;;;;;;;;4943808;29;20190;-92
2024/03/20 11:13:30;;;;;;;14.35;9.93;;;;;;;;;;4943408;28;20202;-91
2024/03/20 11:16:35;;;;;;;17.67;9.63;;;;;;;;;;4946753;29;20195;-90
2024/03/20 11:19:45;;;;;;;16.80;10.43;;;;;;;;;;4949390;28;20194;-91
2024/03/20 11:22:52;;;;;;;15.13;10.15;;;;;;;;;;4949116;28;20327;-89
2024/03/20 11:25:58;;;;;;;17.90;10.68;;;;;;;;;;4949117;28;20366;-92
2024/03/20 11:29:04;;;;;;;18.40;10.23;;;;;;;;;;4946557;28;20190;-92
2024/03/20 11:32:12;;;;;;;18.05;9.25;;;;;;;;;;4948652;28;20198;-89
2024/03/20 11:35:17;;;;;;;16.63;8.50;;;;;;;;;;4950076;28;20191;-90
2024/03/20 11:38:28;;;;;;;14.57;9.10;;;;;;;;;;4948725;28;20561;-90
2024/03/20 11:41:37;;;;;;;13.30;8.73;;;;;;;;;;4949642;28;20206;-90
2024/03/20 11:44:44;;;;;;;14.75;8.70;;;;;;;;;;4950495;28;20179;-90
2024/03/20 11:47:48;;;;;;;16.27;8.68;;;;;;;;;;4950322;28;20235;-89
2024/03/20 11:50:54;;;;;;;13.98;8.27;;;;;;;;;;4948125;28;20238;-89
2024/03/20 11:54:03;;;;;;;12.77;8.13;;;;;;;;;;4946873;28;20179;-90
2024/03/20 11:57:12;;;;;;;11.60;7.80;;;;;;;;;;4945621;29;20206;-90
2024/03/20 12:00:17;;;;;;;15.38;8.43;;;;;;;;;;4947644;28;20242;-90
2024/03/20 12:03:23;;;;;;;16.45;7.95;;;;;;;;;;4948931;28;20258;-91
2024/03/20 12:06:28;;;;;;;16.35;8.13;;;;;;;;;;4948050;28;20219;-91
2024/03/20 12:09:32;;;;;;;14.20;7.88;;;;;;;;;;4947296;28;20251;-90
2024/03/20 12:12:39;;;;;;;14.00;8.30;;;;;;;;;;4947090;28;20214;-91
2024/03/20 12:15:43;;;;;;;13.10;7.78;;;;;;;;;;4945660;28;20218;-90
2024/03/20 12:18:49;;;;;;;14.95;8.10;;;;;;;;;;4946475;28;20227;-91
2024/03/20 12:21:53;;;;;;;14.25;8.50;;;;;;;;;;4946968;28;20266;-89
2024/03/20 12:24:58;;;;;;;13.02;7.88;;;;;;;;;;4944823;29;20187;-92
2024/03/20 12:28:04;;;;;;;15.30;6.90;;;;;;;;;;4945391;28;20234;-89
2024/03/20 12:31:11;;;;;;;15.35;7.70;;;;;;;;;;4945349;28;20211;-91
2024/03/20 12:34:15;;;;;;;14.45;6.60;;;;;;;;;;4946742;28;20246;-90
2024/03/20 12:37:21;;;;;;;13.68;6.72;;;;;;;;;;4946093;28;20262;-91
2024/03/20 12:40:25;;;;;;;9.27;6.47;;;;;;;;;;4944476;29;20187;-91
2024/03/20 12:43:32;;;;;;;9.43;6.05;;;;;;;;;;4946125;28;20220;-89
2024/03/20 12:46:36;;;;;;;13.25;6.68;;;;;;;;;;4945437;28;20223;-91
2024/03/20 12:49:41;;;;;;;9.25;6.13;;;;;;;;;;4946119;28;20469;-92
2024/03/20 12:52:45;;;;;;;10.20;5.93;;;;;;;;;;4949609;28;20195;-90
2024/03/20 12:55:50;;;;;;;10.95;6.32;;;;;;;;;;4945453;28;20291;-91
2024/03/20 12:58:56;;;;;;;8.77;5.93;;;;;;;;;;4946187;29;20198;-89
2024/03/20 13:02:01;;;;;;;13.52;5.82;;;;;;;;;;4944679;29;20231;-90
2024/03/20 13:05:09;;;;;;;17.45;6.25;;;;;;;;;;4947245;29;20207;-91
2024/03/20 13:08:15;;;;;;;9.70;5.30;;;;;;;;;;4946222;29;20673;-92
2024/03/20 13:11:19;;;;;;;9.75;4.80;;;;;;;;;;4947835;28;20202;-90
2024/03/20 13:14:27;;;;;;;6.75;4.50;;;;;;;;;;4945770;28;20223;-91
2024/03/20 13:17:31;;;;;;;8.10;5.10;;;;;;;;;;4948188;28;20347;-92
2024/03/20 13:20:36;;;;;;;7.43;4.47;;;;;;;;;;4947190;28;20666;-91
2024/03/20 13:23:40;;;;;;;9.52;4.47;;;;;;;;;;4945510;28;20210;-91
2024/03/20 13:26:50;;;;;;;13.15;5.82;;;;;;;;;;4932031;28;20238;-92
2024/03/20 13:29:59;;;;;;;7.82;4.30;;;;;;;;;;4925019;29;20208;-92
2024/03/20 13:33:05;;;;;;;10.48;4.07;;;;;;;;;;4924963;28;20192;-91
2024/03/20 13:36:14;;;;;;;7.47;4.65;;;;;;;;;;4938566;28;20214;-91
2024/03/20 13:39:22;;;;;;;7.25;4.10;;;;;;;;;;4945773;29;20218;-90
2024/03/20 13:42:33;;;;;;;8.20;4.90;;;;;;;;;;4944898;28;20204;-93
2024/03/20 13:45:53;;;;;;;6.65;4.60;;;;;;;;;;4945846;28;20199;-91
2024/03/20 13:48:58;;;;;;;7.97;4.38;;;;;;;;;;4944417;28;20190;-90
2024/03/20 13:52:04;;;;;;;8.00;4.55;;;;;;;;;;4944480;28;20213;-90
2024/03/20 13:55:12;;;;;;;7.93;4.72;;;;;;;;;;4943120;28;20190;-91
2024/03/20 13:58:18;;;;;;;9.00;4.53;;;;;;;;;;4944175;28;20208;-90
2024/03/20 14:01:25;;;;;;;10.95;4.47;;;;;;;;;;4928182;29;20239;-92
2024/03/20 14:04:30;;;;;;;10.23;4.47;;;;;;;;;;4925110;29;20301;-90
2024/03/20 14:07:34;;;;;;;12.38;4.53;;;;;;;;;;4924644;29;20215;-90
2024/03/20 14:10:40;;;;;;;6.90;3.78;;;;;;;;;;4927088;29;20227;-92
2024/03/20 14:13:46;;;;;;;13.75;5.90;;;;;;;;;;4926305;28;20654;-88
2024/03/20 14:16:51;;;;;;;9.85;4.70;;;;;;;;;;4933846;28;20298;-90
2024/03/20 14:19:57;;;;;;;13.32;4.68;;;;;;;;;;4925132;29;20187;-90
2024/03/20 14:23:02;;;;;;;12.70;4.55;;;;;;;;;;4925980;28;20193;-92
2024/03/20 14:26:07;;;;;;;10.75;5.68;;;;;;;;;;4941700;28;20686;-90
2024/03/20 14:29:11;;;;;;;10.25;5.32;;;;;;;;;;4945778;28;20308;-91
2024/03/20 14:32:18;;;;;;;11.07;5.80;;;;;;;;;;4925549;28;20667;-92
2024/03/20 14:35:24;;;;;;;12.73;5.57;;;;;;;;;;4941771;29;20192;-89
2024/03/20 14:38:38;;;;;;;11.40;4.78;;;;;;;;;;4925860;28;20199;-89
2024/03/20 14:41:43;;;;;;;9.02;5.03;;;;;;;;;;4926061;28;20203;-91
2024/03/20 14:44:48;;;;;;;13.48;5.82;;;;;;;;;;4936634;28;20203;-92
2024/03/20 14:47:56;;;;;;;13.18;5.55;;;;;;;;;;4935689;28;20311;-91
2024/03/20 14:51:01;;;;;;;14.05;6.75;;;;;;;;;;4925090;28;20224;-90
2024/03/20 14:54:07;;;;;;;15.35;6.22;;;;;;;;;;4937959;28;20257;-91
2024/03/20 14:57:13;;;;;;;11.88;5.95;;;;;;;;;;4924547;29;20566;-90
2024/03/20 15:00:19;;;;;;;15.10;6.32;;;;;;;;;;4925981;29;20203;-91
2024/03/20 15:03:26;;;;;;;10.52;5.72;;;;;;;;;;4936358;29;20556;-91
2024/03/20 15:06:30;;;;;;;11.90;5.50;;;;;;;;;;4927777;28;20179;-90
2024/03/20 15:09:36;;;;;;;13.77;6.05;;;;;;;;;;4939916;28;20208;-89
2024/03/20 15:12:40;;;;;;;13.45;5.50;;;;;;;;;;4926561;29;20243;-93
2024/03/20 15:15:46;;;;;;;13.07;5.78;;;;;;;;;;4937872;28;20192;-90
2024/03/20 15:18:53;;;;;;;11.02;5.30;;;;;;;;;;4939437;28;20198;-91
2024/03/20 15:21:59;;;;;;;10.73;5.32;;;;;;;;;;4938985;28;20295;-92
2024/03/20 15:25:08;;;;;;;11.63;4.80;;;;;;;;;;4928477;28;20268;-90
2024/03/20 15:28:13;;;;;;;10.10;4.93;;;;;;;;;;4925995;28;20227;-90
2024/03/20 15:31:21;;;;;;;11.60;5.22;;;;;;;;;;4937709;29;20184;-91
2024/03/20 15:34:26;;;;;;;9.48;5.10;;;;;;;;;;4935398;28;20188;-92
2024/03/20 15:37:31;;;;;;;11.02;5.13;;;;;;;;;;4935428;28;20562;-90
2024/03/20 15:40:35;;;;;;;9.00;4.65;;;;;;;;;;4938014;28;20503;-90
2024/03/20 15:43:41;;;;;;;11.43;4.82;;;;;;;;;;4944053;28;20670;-90
2024/03/20 15:46:46;;;;;;;7.38;3.95;;;;;;;;;;4944940;28;20239;-90
2024/03/20 15:49:53;;;;;;;10.43;4.18;;;;;;;;;;4949133;28;20199;-90
2024/03/20 15:52:57;;;;;;;8.45;3.90;;;;;;;;;;4945026;29;20195;-90
2024/03/20 15:56:05;;;;;;;10.00;3.65;;;;;;;;;;4947276;28;20211;-91
2024/03/20 15:59:10;;;;;;;8.48;4.35;;;;;;;;;;4946897;28;20269;-90
2024/03/20 16:02:18;;;;;;;14.27;4.40;;;;;;;;;;4935676;29;20203;-91
2024/03/20 16:05:25;;;;;;;7.40;3.63;;;;;;;;;;4932524;28;20195;-90
2024/03/20 16:08:34;;;;;;;8.48;4.25;;;;;;;;;;4932481;29;20224;-92
2024/03/20 16:11:42;;;;;;;8.82;4.45;;;;;;;;;;4933110;28;20248;-91
2024/03/20 16:14:47;;;;;;;9.18;4.60;;;;;;;;;;4932753;29;20199;-88
2024/03/20 16:17:54;;;;;;;9.45;4.07;;;;;;;;;;4932132;29;20179;-91
2024/03/20 16:21:04;;;;;;;20.85;10.27;;;;;;;;;;4932789;28;20203;-90
2024/03/20 16:24:14;;;;;;;9.32;3.85;;;;;;;;;;4958954;29;20200;-92
2024/03/20 16:27:19;;;;;;;7.05;3.75;;;;;;;;;;4948367;29;20259;-90
2024/03/20 16:30:25;;;;;;;13.52;4.10;;;;;;;;;;4949752;28;20191;-89
2024/03/20 16:33:29;;;;;;;10.98;3.80;;;;;;;;;;4948586;28;20287;-90
2024/03/20 16:36:38;;;;;;;13.23;5.78;;;;;;;;;;4948748;28;20383;-92
2024/03/20 16:39:43;;;;;;;17.08;7.07;;;;;;;;;;4939978;28;20211;-89
2024/03/20 16:42:48;;;;;;;20.20;8.18;;;;;;;;;;4947480;28;20341;-90
2024/03/20 16:45:53;;;;;;;26.38;11.30;;;;;;;;;;4927233;28;20187;-89
2024/03/20 16:48:58;;;;;;;10.48;5.28;;;;;;;;;;4927386;29;20219;-90
2024/03/20 16:52:08;;;;;;;9.75;5.63;;;;;;;;;;4938953;29;20196;-89
2024/03/20 16:55:13;;;;;;;13.05;6.25;;;;;;;;;;4937636;29;20196;-90
2024/03/20 16:58:17;;;;;;;65.13;25.27;;;;;;;;;;4926360;29;20176;-89
2024/03/20 17:01:23;;;;;;;19.20;9.75;;;;;;;;;;4939824;29;20584;-88
2024/03/20 17:04:30;;;;;;;16.27;7.15;;;;;;;;;;4931583;28;20199;-89
2024/03/20 17:07:38;;;;;;;18.27;6.78;;;;;;;;;;4939406;29;20207;-88
2024/03/20 17:10:43;;;;;;;20.55;8.50;;;;;;;;;;4926320;29;20200;-89
2024/03/20 17:13:48;;;;;;;15.52;7.70;;;;;;;;;;4938444;28;20205;-91
2024/03/20 17:16:52;;;;;;;23.80;9.68;;;;;;;;;;4937493;29;20231;-90
2024/03/20 17:19:57;;;;;;;22.02;8.02;;;;;;;;;;4936516;28;20879;-92
2024/03/20 17:23:02;;;;;;;18.05;7.47;;;;;;;;;;4939012;28;20196;-89
2024/03/20 17:26:08;;;;;;;21.85;7.20;;;;;;;;;;4940040;29;20231;-90
2024/03/20 17:29:12;;;;;;;15.32;7.50;;;;;;;;;;4937758;28;20359;-90
2024/03/20 17:32:20;;;;;;;19.55;6.05;;;;;;;;;;4926462;28;20175;-90
2024/03/20 17:35:25;;;;;;;10.88;5.18;;;;;;;;;;4928108;28;20192;-92
2024/03/20 17:38:32;;;;;;;14.05;5.82;;;;;;;;;;4938435;28;20219;-92
2024/03/20 17:41:36;;;;;;;12.75;5.82;;;;;;;;;;4937021;28;20187;-90
2024/03/20 17:44:41;;;;;;;11.18;5.65;;;;;;;;;;4936090;29;20241;-89
2024/03/20 17:47:46;;;;;;;17.45;6.97;;;;;;;;;;4926091;28;20192;-90
2024/03/20 17:50:50;;;;;;;15.82;6.10;;;;;;;;;;4927225;28;20192;-90
2024/03/20 17:53:57;;;;;;;13.25;6.35;;;;;;;;;;4938552;28;20251;-89
2024/03/20 17:57:02;;;;;;;16.52;6.85;;;;;;;;;;4936509;28;20337;-90
2024/03/20 18:00:13;;;;;;;16.15;7.10;;;;;;;;;;4926231;28;20716;-90
2024/03/20 18:03:20;;;;;;;18.90;8.25;;;;;;;;;;4927264;29;20576;-90
2024/03/20 18:06:26;;;;;;;26.15;9.38;;;;;;;;;;4941297;28;20270;-91
2024/03/20 18:09:36;;;;;;;16.85;7.07;;;;;;;;;;4942711;28;20568;-90